sensor_id;sensor_type;location;lat;lon;timestamp;P1;P2;P0
69238;PMS5003;56349;51.816;-0.026;2023-03-31T00:01:27;3;3;
69238;PMS5003;56349;51.816;-0.026;2023-03-31T00:03:53;3;3;
69238;PMS5003;56349;51.816;-0.026;2023-03-31T00:06:19;2;2;
69238;PMS5003;56349;51.816;-0.026;2023-03-31T00:08:45;1;1;
69238;PMS5003;56349;51.816;-0.026;2023-03-31T00:11:10;4;3;
69238;PMS5003;56349;51.816;-0.026;2023-03-31T00:13:35;6;4;
69238;PMS5003;56349;51.816;-0.026;2023-03-31T00:16:01;5;2;
69238;PMS5003;56349;51.816;-0.026;2023-03-31T00:18:26;2;2;
69238;PMS5003;56349;51.816;-0.026;2023-03-31T00:20:52;5;3;
69238;PMS5003;56349;51.816;-0.026;2023-03-31T00:23:18;4;3;
69238;PMS5003;56349;51.816;-0.026;2023-03-31T00:25:44;4;2;
69238;PMS5003;56349;51.816;-0.026;2023-03-31T00:28:10;4;3;
69238;PMS5003;56349;51.816;-0.026;2023-03-31T00:30:35;3;3;
69238;PMS5003;56349;51.816;-0.026;2023-03-31T00:33:01;2;2;
69238;PMS5003;56349;51.816;-0.026;2023-03-31T00:35:26;3;3;
69238;PMS5003;56349;51.816;-0.026;2023-03-31T00:37:52;3;3;
69238;PMS5003;56349;51.816;-0.026;2023-03-31T00:40:18;3;3;
69238;PMS5003;56349;51.816;-0.026;2023-03-31T00:42:43;4;3;
69238;PMS5003;56349;51.816;-0.026;2023-03-31T00:47:35;4;4;
69238;PMS5003;56349;51.816;-0.026;2023-03-31T00:50:01;5;4;
69238;PMS5003;56349;51.816;-0.026;2023-03-31T00:52:31;4;3;
69238;PMS5003;56349;51.816;-0.026;2023-03-31T00:54:54;5;3;
69238;PMS5003;56349;51.816;-0.026;2023-03-31T00:57:19;6;6;
69238;PMS5003;56349;51.816;-0.026;2023-03-31T00:59:45;4;3;
69238;PMS5003;56349;51.816;-0.026;2023-03-31T01:02:09;3;2;
69238;PMS5003;56349;51.816;-0.026;2023-03-31T01:04:35;1;1;
69238;PMS5003;56349;51.816;-0.026;2023-03-31T01:07:02;2;2;
69238;PMS5003;56349;51.816;-0.026;2023-03-31T01:09:28;2;1;
69238;PMS5003;56349;51.816;-0.026;2023-03-31T01:11:52;2;2;
69238;PMS5003;56349;51.816;-0.026;2023-03-31T01:14:18;4;2;
69238;PMS5003;56349;51.816;-0.026;2023-03-31T01:16:44;4;3;
69238;PMS5003;56349;51.816;-0.026;2023-03-31T01:19:11;4;4;
69238;PMS5003;56349;51.816;-0.026;2023-03-31T01:24:07;1;1;
69238;PMS5003;56349;51.816;-0.026;2023-03-31T01:28:53;3;3;
69238;PMS5003;56349;51.816;-0.026;2023-03-31T01:31:24;4;3;
69238;PMS5003;56349;51.816;-0.026;2023-03-31T01:36:15;1;1;
69238;PMS5003;56349;51.816;-0.026;2023-03-31T01:38:40;2;1;
69238;PMS5003;56349;51.816;-0.026;2023-03-31T01:41:04;2;1;
69238;PMS5003;56349;51.816;-0.026;2023-03-31T01:43:29;4;3;
69238;PMS5003;56349;51.816;-0.026;2023-03-31T01:45:54;1;1;
69238;PMS5003;56349;51.816;-0.026;2023-03-31T01:48:19;4;3;
69238;PMS5003;56349;51.816;-0.026;2023-03-31T01:50:44;2;2;
69238;PMS5003;56349;51.816;-0.026;2023-03-31T01:53:10;2;2;
69238;PMS5003;56349;51.816;-0.026;2023-03-31T01:55:35;2;2;
69238;PMS5003;56349;51.816;-0.026;2023-03-31T01:58:02;2;1;
69238;PMS5003;56349;51.816;-0.026;2023-03-31T02:00:26;3;3;
69238;PMS5003;56349;51.816;-0.026;2023-03-31T02:02:52;2;2;
69238;PMS5003;56349;51.816;-0.026;2023-03-31T02:05:17;0;0;
69238;PMS5003;56349;51.816;-0.026;2023-03-31T02:07:43;2;1;
69238;PMS5003;56349;51.816;-0.026;2023-03-31T02:10:08;5;2;
69238;PMS5003;56349;51.816;-0.026;2023-03-31T02:12:34;1;1;
69238;PMS5003;56349;51.816;-0.026;2023-03-31T02:15:00;2;2;
69238;PMS5003;56349;51.816;-0.026;2023-03-31T02:17:26;2;2;
69238;PMS5003;56349;51.816;-0.026;2023-03-31T02:19:51;2;2;
69238;PMS5003;56349;51.816;-0.026;2023-03-31T02:22:17;1;1;
69238;PMS5003;56349;51.816;-0.026;2023-03-31T02:24:43;2;2;
69238;PMS5003;56349;51.816;-0.026;2023-03-31T02:27:11;3;2;
69238;PMS5003;56349;51.816;-0.026;2023-03-31T02:29:34;5;2;
69238;PMS5003;56349;51.816;-0.026;2023-03-31T02:32:01;2;2;
69238;PMS5003;56349;51.816;-0.026;2023-03-31T02:34:25;3;2;
69238;PMS5003;56349;51.816;-0.026;2023-03-31T02:36:51;1;1;
69238;PMS5003;56349;51.816;-0.026;2023-03-31T02:39:18;1;1;
69238;PMS5003;56349;51.816;-0.026;2023-03-31T02:41:42;2;1;
69238;PMS5003;56349;51.816;-0.026;2023-03-31T02:44:07;3;2;
69238;PMS5003;56349;51.816;-0.026;2023-03-31T02:46:32;2;2;
69238;PMS5003;56349;51.816;-0.026;2023-03-31T02:48:59;1;1;
69238;PMS5003;56349;51.816;-0.026;2023-03-31T02:51:27;4;2;
69238;PMS5003;56349;51.816;-0.026;2023-03-31T02:53:53;1;1;
69238;PMS5003;56349;51.816;-0.026;2023-03-31T02:56:19;2;2;
69238;PMS5003;56349;51.816;-0.026;2023-03-31T02:58:43;1;1;
69238;PMS5003;56349;51.816;-0.026;2023-03-31T03:01:07;3;2;
69238;PMS5003;56349;51.816;-0.026;2023-03-31T03:03:34;1;1;
69238;PMS5003;56349;51.816;-0.026;2023-03-31T03:05:59;3;2;
69238;PMS5003;56349;51.816;-0.026;2023-03-31T03:08:25;3;3;
69238;PMS5003;56349;51.816;-0.026;2023-03-31T03:10:53;2;2;
69238;PMS5003;56349;51.816;-0.026;2023-03-31T03:13:15;5;3;
69238;PMS5003;56349;51.816;-0.026;2023-03-31T03:15:41;5;5;
69238;PMS5003;56349;51.816;-0.026;2023-03-31T03:18:05;3;3;
69238;PMS5003;56349;51.816;-0.026;2023-03-31T03:20:31;3;3;
69238;PMS5003;56349;51.816;-0.026;2023-03-31T03:22:57;4;3;
69238;PMS5003;56349;51.816;-0.026;2023-03-31T03:25:22;5;2;
69238;PMS5003;56349;51.816;-0.026;2023-03-31T03:27:48;1;1;
69238;PMS5003;56349;51.816;-0.026;2023-03-31T03:30:14;3;3;
69238;PMS5003;56349;51.816;-0.026;2023-03-31T03:32:39;5;4;
69238;PMS5003;56349;51.816;-0.026;2023-03-31T03:35:05;10;8;
69238;PMS5003;56349;51.816;-0.026;2023-03-31T03:37:31;3;3;
69238;PMS5003;56349;51.816;-0.026;2023-03-31T03:39:56;2;2;
69238;PMS5003;56349;51.816;-0.026;2023-03-31T03:42:21;2;2;
69238;PMS5003;56349;51.816;-0.026;2023-03-31T03:44:47;2;2;
69238;PMS5003;56349;51.816;-0.026;2023-03-31T03:47:13;1;1;
69238;PMS5003;56349;51.816;-0.026;2023-03-31T03:49:39;3;3;
69238;PMS5003;56349;51.816;-0.026;2023-03-31T03:52:05;1;1;
69238;PMS5003;56349;51.816;-0.026;2023-03-31T03:54:31;5;3;
69238;PMS5003;56349;51.816;-0.026;2023-03-31T03:56:56;2;1;
69238;PMS5003;56349;51.816;-0.026;2023-03-31T03:59:22;3;3;
69238;PMS5003;56349;51.816;-0.026;2023-03-31T04:01:48;1;1;
69238;PMS5003;56349;51.816;-0.026;2023-03-31T04:04:14;5;2;
69238;PMS5003;56349;51.816;-0.026;2023-03-31T04:06:40;3;2;
69238;PMS5003;56349;51.816;-0.026;2023-03-31T04:09:06;2;2;
69238;PMS5003;56349;51.816;-0.026;2023-03-31T04:11:32;1;1;
69238;PMS5003;56349;51.816;-0.026;2023-03-31T04:13:58;2;2;
69238;PMS5003;56349;51.816;-0.026;2023-03-31T04:16:23;3;3;
69238;PMS5003;56349;51.816;-0.026;2023-03-31T04:18:49;1;1;
69238;PMS5003;56349;51.816;-0.026;2023-03-31T04:21:15;3;3;
69238;PMS5003;56349;51.816;-0.026;2023-03-31T04:23:41;2;2;
69238;PMS5003;56349;51.816;-0.026;2023-03-31T04:26:07;1;1;
69238;PMS5003;56349;51.816;-0.026;2023-03-31T04:28:32;2;2;
69238;PMS5003;56349;51.816;-0.026;2023-03-31T04:30:58;4;2;
69238;PMS5003;56349;51.816;-0.026;2023-03-31T04:33:24;3;2;
69238;PMS5003;56349;51.816;-0.026;2023-03-31T04:35:50;3;2;
69238;PMS5003;56349;51.816;-0.026;2023-03-31T04:38:15;3;3;
69238;PMS5003;56349;51.816;-0.026;2023-03-31T04:40:41;1;1;
69238;PMS5003;56349;51.816;-0.026;2023-03-31T04:43:06;4;3;
69238;PMS5003;56349;51.816;-0.026;2023-03-31T04:45:32;2;2;
69238;PMS5003;56349;51.816;-0.026;2023-03-31T04:47:58;2;2;
69238;PMS5003;56349;51.816;-0.026;2023-03-31T04:50:23;2;2;
69238;PMS5003;56349;51.816;-0.026;2023-03-31T04:52:49;2;2;
69238;PMS5003;56349;51.816;-0.026;2023-03-31T04:55:15;2;2;
69238;PMS5003;56349;51.816;-0.026;2023-03-31T04:57:41;4;3;
69238;PMS5003;56349;51.816;-0.026;2023-03-31T05:00:07;2;2;
69238;PMS5003;56349;51.816;-0.026;2023-03-31T05:02:32;5;4;
69238;PMS5003;56349;51.816;-0.026;2023-03-31T05:04:58;3;1;
69238;PMS5003;56349;51.816;-0.026;2023-03-31T05:07:23;1;1;
69238;PMS5003;56349;51.816;-0.026;2023-03-31T05:09:49;2;2;
69238;PMS5003;56349;51.816;-0.026;2023-03-31T05:12:14;1;1;
69238;PMS5003;56349;51.816;-0.026;2023-03-31T05:14:40;3;2;
69238;PMS5003;56349;51.816;-0.026;2023-03-31T05:17:06;3;3;
69238;PMS5003;56349;51.816;-0.026;2023-03-31T05:19:32;1;1;
69238;PMS5003;56349;51.816;-0.026;2023-03-31T05:21:57;2;2;
69238;PMS5003;56349;51.816;-0.026;2023-03-31T05:24:23;3;1;
69238;PMS5003;56349;51.816;-0.026;2023-03-31T05:26:49;2;1;
69238;PMS5003;56349;51.816;-0.026;2023-03-31T05:29:15;2;2;
69238;PMS5003;56349;51.816;-0.026;2023-03-31T05:31:40;2;2;
69238;PMS5003;56349;51.816;-0.026;2023-03-31T05:34:06;3;2;
69238;PMS5003;56349;51.816;-0.026;2023-03-31T05:36:32;3;3;
69238;PMS5003;56349;51.816;-0.026;2023-03-31T05:38:58;3;3;
69238;PMS5003;56349;51.816;-0.026;2023-03-31T05:41:23;2;2;
69238;PMS5003;56349;51.816;-0.026;2023-03-31T05:43:49;2;1;
69238;PMS5003;56349;51.816;-0.026;2023-03-31T05:46:14;7;5;
69238;PMS5003;56349;51.816;-0.026;2023-03-31T05:48:40;13;9;
69238;PMS5003;56349;51.816;-0.026;2023-03-31T05:51:06;14;9;
69238;PMS5003;56349;51.816;-0.026;2023-03-31T05:53:32;9;8;
69238;PMS5003;56349;51.816;-0.026;2023-03-31T05:55:58;8;6;
69238;PMS5003;56349;51.816;-0.026;2023-03-31T05:58:23;4;4;
69238;PMS5003;56349;51.816;-0.026;2023-03-31T06:00:48;9;8;
69238;PMS5003;56349;51.816;-0.026;2023-03-31T06:03:14;12;11;
69238;PMS5003;56349;51.816;-0.026;2023-03-31T06:08:05;16;11;
69238;PMS5003;56349;51.816;-0.026;2023-03-31T06:10:30;10;8;
69238;PMS5003;56349;51.816;-0.026;2023-03-31T06:12:55;13;7;
69238;PMS5003;56349;51.816;-0.026;2023-03-31T06:15:21;9;7;
69238;PMS5003;56349;51.816;-0.026;2023-03-31T06:17:46;9;5;
69238;PMS5003;56349;51.816;-0.026;2023-03-31T06:20:12;11;8;
69238;PMS5003;56349;51.816;-0.026;2023-03-31T06:22:38;6;6;
69238;PMS5003;56349;51.816;-0.026;2023-03-31T06:25:04;8;7;
69238;PMS5003;56349;51.816;-0.026;2023-03-31T06:27:29;15;10;
69238;PMS5003;56349;51.816;-0.026;2023-03-31T06:29:55;2;1;
69238;PMS5003;56349;51.816;-0.026;2023-03-31T06:32:21;0;0;
69238;PMS5003;56349;51.816;-0.026;2023-03-31T06:34:46;1;1;
69238;PMS5003;56349;51.816;-0.026;2023-03-31T06:37:12;2;2;
69238;PMS5003;56349;51.816;-0.026;2023-03-31T06:39:38;1;1;
69238;PMS5003;56349;51.816;-0.026;2023-03-31T06:42:04;0;0;
69238;PMS5003;56349;51.816;-0.026;2023-03-31T06:44:29;2;0;
69238;PMS5003;56349;51.816;-0.026;2023-03-31T06:46:55;0;0;
69238;PMS5003;56349;51.816;-0.026;2023-03-31T06:49:21;1;1;
69238;PMS5003;56349;51.816;-0.026;2023-03-31T06:51:46;1;1;
69238;PMS5003;56349;51.816;-0.026;2023-03-31T06:54:12;1;0;
69238;PMS5003;56349;51.816;-0.026;2023-03-31T06:56:38;2;2;
69238;PMS5003;56349;51.816;-0.026;2023-03-31T06:59:03;0;0;
69238;PMS5003;56349;51.816;-0.026;2023-03-31T07:01:29;2;1;
69238;PMS5003;56349;51.816;-0.026;2023-03-31T07:03:55;2;1;
69238;PMS5003;56349;51.816;-0.026;2023-03-31T07:06:20;3;2;
69238;PMS5003;56349;51.816;-0.026;2023-03-31T07:08:46;2;1;
69238;PMS5003;56349;51.816;-0.026;2023-03-31T07:11:12;2;1;
69238;PMS5003;56349;51.816;-0.026;2023-03-31T07:13:37;1;1;
69238;PMS5003;56349;51.816;-0.026;2023-03-31T07:16:04;3;2;
69238;PMS5003;56349;51.816;-0.026;2023-03-31T07:18:29;0;0;
69238;PMS5003;56349;51.816;-0.026;2023-03-31T07:20:54;1;1;
69238;PMS5003;56349;51.816;-0.026;2023-03-31T07:23:20;1;1;
69238;PMS5003;56349;51.816;-0.026;2023-03-31T07:25:46;1;0;
69238;PMS5003;56349;51.816;-0.026;2023-03-31T07:28:12;1;1;
69238;PMS5003;56349;51.816;-0.026;2023-03-31T07:30:38;1;1;
69238;PMS5003;56349;51.816;-0.026;2023-03-31T07:33:04;1;1;
69238;PMS5003;56349;51.816;-0.026;2023-03-31T07:35:28;1;1;
69238;PMS5003;56349;51.816;-0.026;2023-03-31T07:37:54;2;2;
69238;PMS5003;56349;51.816;-0.026;2023-03-31T07:40:21;1;1;
69238;PMS5003;56349;51.816;-0.026;2023-03-31T07:42:45;1;1;
69238;PMS5003;56349;51.816;-0.026;2023-03-31T07:45:11;0;0;
69238;PMS5003;56349;51.816;-0.026;2023-03-31T07:47:37;0;0;
69238;PMS5003;56349;51.816;-0.026;2023-03-31T07:50:03;0;0;
69238;PMS5003;56349;51.816;-0.026;2023-03-31T07:52:28;0;0;
69238;PMS5003;56349;51.816;-0.026;2023-03-31T07:54:54;1;1;
69238;PMS5003;56349;51.816;-0.026;2023-03-31T07:57:19;1;1;
69238;PMS5003;56349;51.816;-0.026;2023-03-31T07:59:45;1;1;
69238;PMS5003;56349;51.816;-0.026;2023-03-31T08:02:12;0;0;
69238;PMS5003;56349;51.816;-0.026;2023-03-31T08:04:37;0;0;
69238;PMS5003;56349;51.816;-0.026;2023-03-31T08:07:03;1;1;
69238;PMS5003;56349;51.816;-0.026;2023-03-31T08:09:29;1;1;
69238;PMS5003;56349;51.816;-0.026;2023-03-31T08:11:55;1;1;
69238;PMS5003;56349;51.816;-0.026;2023-03-31T08:14:20;1;1;
69238;PMS5003;56349;51.816;-0.026;2023-03-31T08:16:46;1;1;
69238;PMS5003;56349;51.816;-0.026;2023-03-31T08:19:12;1;1;
69238;PMS5003;56349;51.816;-0.026;2023-03-31T08:21:37;0;0;
69238;PMS5003;56349;51.816;-0.026;2023-03-31T08:24:03;0;0;
69238;PMS5003;56349;51.816;-0.026;2023-03-31T08:26:29;0;0;
69238;PMS5003;56349;51.816;-0.026;2023-03-31T08:28:56;0;0;
69238;PMS5003;56349;51.816;-0.026;2023-03-31T08:31:20;0;0;
69238;PMS5003;56349;51.816;-0.026;2023-03-31T08:33:45;0;0;
69238;PMS5003;56349;51.816;-0.026;2023-03-31T08:36:11;0;0;
69238;PMS5003;56349;51.816;-0.026;2023-03-31T08:38:38;2;0;
69238;PMS5003;56349;51.816;-0.026;2023-03-31T08:41:03;0;0;
69238;PMS5003;56349;51.816;-0.026;2023-03-31T08:43:30;0;0;
69238;PMS5003;56349;51.816;-0.026;2023-03-31T08:45:55;0;0;
69238;PMS5003;56349;51.816;-0.026;2023-03-31T08:48:21;0;0;
69238;PMS5003;56349;51.816;-0.026;2023-03-31T08:50:47;1;1;
69238;PMS5003;56349;51.816;-0.026;2023-03-31T08:53:12;1;1;
69238;PMS5003;56349;51.816;-0.026;2023-03-31T08:55:39;1;1;
69238;PMS5003;56349;51.816;-0.026;2023-03-31T08:58:05;0;0;
69238;PMS5003;56349;51.816;-0.026;2023-03-31T09:00:29;0;0;
69238;PMS5003;56349;51.816;-0.026;2023-03-31T09:02:55;0;0;
69238;PMS5003;56349;51.816;-0.026;2023-03-31T09:05:26;0;0;
69238;PMS5003;56349;51.816;-0.026;2023-03-31T09:07:47;0;0;
69238;PMS5003;56349;51.816;-0.026;2023-03-31T09:12:38;2;1;
69238;PMS5003;56349;51.816;-0.026;2023-03-31T09:15:03;0;0;
69238;PMS5003;56349;51.816;-0.026;2023-03-31T09:17:29;1;0;
69238;PMS5003;56349;51.816;-0.026;2023-03-31T09:19:55;0;0;
69238;PMS5003;56349;51.816;-0.026;2023-03-31T09:22:21;0;0;
69238;PMS5003;56349;51.816;-0.026;2023-03-31T09:24:48;0;0;
69238;PMS5003;56349;51.816;-0.026;2023-03-31T09:27:11;0;0;
69238;PMS5003;56349;51.816;-0.026;2023-03-31T09:29:40;1;1;
69238;PMS5003;56349;51.816;-0.026;2023-03-31T09:32:08;1;0;
69238;PMS5003;56349;51.816;-0.026;2023-03-31T09:34:29;0;0;
69238;PMS5003;56349;51.816;-0.026;2023-03-31T09:36:54;2;1;
69238;PMS5003;56349;51.816;-0.026;2023-03-31T09:39:20;0;0;
69238;PMS5003;56349;51.816;-0.026;2023-03-31T09:41:47;3;2;
69238;PMS5003;56349;51.816;-0.026;2023-03-31T09:44:18;5;5;
69238;PMS5003;56349;51.816;-0.026;2023-03-31T09:46:36;7;7;
69238;PMS5003;56349;51.816;-0.026;2023-03-31T09:51:29;13;12;
69238;PMS5003;56349;51.816;-0.026;2023-03-31T09:53:55;19;19;
69238;PMS5003;56349;51.816;-0.026;2023-03-31T09:58:44;26;26;
69238;PMS5003;56349;51.816;-0.026;2023-03-31T10:01:11;27;27;
69238;PMS5003;56349;51.816;-0.026;2023-03-31T10:06:02;28;28;
69238;PMS5003;56349;51.816;-0.026;2023-03-31T10:08:28;27;24;
69238;PMS5003;56349;51.816;-0.026;2023-03-31T10:10:54;27;27;
69238;PMS5003;56349;51.816;-0.026;2023-03-31T10:13:19;23;23;
69238;PMS5003;56349;51.816;-0.026;2023-03-31T10:15:44;27;25;
69238;PMS5003;56349;51.816;-0.026;2023-03-31T10:18:12;31;29;
69238;PMS5003;56349;51.816;-0.026;2023-03-31T10:20:37;24;23;
69238;PMS5003;56349;51.816;-0.026;2023-03-31T10:23:02;22;22;
69238;PMS5003;56349;51.816;-0.026;2023-03-31T10:25:27;28;25;
69238;PMS5003;56349;51.816;-0.026;2023-03-31T10:27:54;26;25;
69238;PMS5003;56349;51.816;-0.026;2023-03-31T10:30:20;26;26;
69238;PMS5003;56349;51.816;-0.026;2023-03-31T10:32:43;28;27;
69238;PMS5003;56349;51.816;-0.026;2023-03-31T10:35:13;26;25;
69238;PMS5003;56349;51.816;-0.026;2023-03-31T10:37:35;25;25;
69238;PMS5003;56349;51.816;-0.026;2023-03-31T10:40:00;28;27;
69238;PMS5003;56349;51.816;-0.026;2023-03-31T10:42:26;22;22;
69238;PMS5003;56349;51.816;-0.026;2023-03-31T10:44:55;26;26;
69238;PMS5003;56349;51.816;-0.026;2023-03-31T10:47:18;24;23;
69238;PMS5003;56349;51.816;-0.026;2023-03-31T10:49:43;27;27;
69238;PMS5003;56349;51.816;-0.026;2023-03-31T10:54:33;29;29;
69238;PMS5003;56349;51.816;-0.026;2023-03-31T10:56:59;23;22;
69238;PMS5003;56349;51.816;-0.026;2023-03-31T10:59:28;19;19;
69238;PMS5003;56349;51.816;-0.026;2023-03-31T11:01:54;20;19;
69238;PMS5003;56349;51.816;-0.026;2023-03-31T11:06:46;17;17;
69238;PMS5003;56349;51.816;-0.026;2023-03-31T11:09:12;17;17;
69238;PMS5003;56349;51.816;-0.026;2023-03-31T11:11:39;20;20;
69238;PMS5003;56349;51.816;-0.026;2023-03-31T11:13:59;17;17;
69238;PMS5003;56349;51.816;-0.026;2023-03-31T11:16:25;14;14;
69238;PMS5003;56349;51.816;-0.026;2023-03-31T11:18:53;15;14;
69238;PMS5003;56349;51.816;-0.026;2023-03-31T11:21:18;14;14;
69238;PMS5003;56349;51.816;-0.026;2023-03-31T11:23:42;16;16;
69238;PMS5003;56349;51.816;-0.026;2023-03-31T11:26:08;17;16;
69238;PMS5003;56349;51.816;-0.026;2023-03-31T11:28:37;17;15;
69238;PMS5003;56349;51.816;-0.026;2023-03-31T11:31:03;16;16;
69238;PMS5003;56349;51.816;-0.026;2023-03-31T11:33:29;18;17;
69238;PMS5003;56349;51.816;-0.026;2023-03-31T11:35:54;15;14;
69238;PMS5003;56349;51.816;-0.026;2023-03-31T11:38:20;16;14;
69238;PMS5003;56349;51.816;-0.026;2023-03-31T11:40:46;16;15;
69238;PMS5003;56349;51.816;-0.026;2023-03-31T11:43:10;13;13;
69238;PMS5003;56349;51.816;-0.026;2023-03-31T11:45:34;15;14;
69238;PMS5003;56349;51.816;-0.026;2023-03-31T11:47:59;13;13;
69238;PMS5003;56349;51.816;-0.026;2023-03-31T11:50:25;15;15;
69238;PMS5003;56349;51.816;-0.026;2023-03-31T11:52:50;12;12;
69238;PMS5003;56349;51.816;-0.026;2023-03-31T11:55:16;14;12;
69238;PMS5003;56349;51.816;-0.026;2023-03-31T11:57:41;12;12;
69238;PMS5003;56349;51.816;-0.026;2023-03-31T12:00:08;12;12;
69238;PMS5003;56349;51.816;-0.026;2023-03-31T12:02:35;15;15;
69238;PMS5003;56349;51.816;-0.026;2023-03-31T12:04:56;13;13;
69238;PMS5003;56349;51.816;-0.026;2023-03-31T12:07:23;14;11;
69238;PMS5003;56349;51.816;-0.026;2023-03-31T12:09:50;12;12;
69238;PMS5003;56349;51.816;-0.026;2023-03-31T12:12:14;11;11;
69238;PMS5003;56349;51.816;-0.026;2023-03-31T12:14:39;11;11;
69238;PMS5003;56349;51.816;-0.026;2023-03-31T12:17:04;11;10;
69238;PMS5003;56349;51.816;-0.026;2023-03-31T12:19:32;11;10;
69238;PMS5003;56349;51.816;-0.026;2023-03-31T12:21:57;14;12;
69238;PMS5003;56349;51.816;-0.026;2023-03-31T12:24:21;16;11;
69238;PMS5003;56349;51.816;-0.026;2023-03-31T12:26:50;10;8;
69238;PMS5003;56349;51.816;-0.026;2023-03-31T12:29:16;11;11;
69238;PMS5003;56349;51.816;-0.026;2023-03-31T12:31:38;11;11;
69238;PMS5003;56349;51.816;-0.026;2023-03-31T12:34:04;15;14;
69238;PMS5003;56349;51.816;-0.026;2023-03-31T12:36:33;16;14;
69238;PMS5003;56349;51.816;-0.026;2023-03-31T12:38:57;10;10;
69238;PMS5003;56349;51.816;-0.026;2023-03-31T12:41:22;13;12;
69238;PMS5003;56349;51.816;-0.026;2023-03-31T12:43:49;13;13;
69238;PMS5003;56349;51.816;-0.026;2023-03-31T12:46:16;11;11;
69238;PMS5003;56349;51.816;-0.026;2023-03-31T12:48:43;13;11;
69238;PMS5003;56349;51.816;-0.026;2023-03-31T12:51:08;8;8;
69238;PMS5003;56349;51.816;-0.026;2023-03-31T12:53:31;11;11;
69238;PMS5003;56349;51.816;-0.026;2023-03-31T12:55:54;11;11;
69238;PMS5003;56349;51.816;-0.026;2023-03-31T13:08:01;11;11;
69238;PMS5003;56349;51.816;-0.026;2023-03-31T13:10:27;11;9;
69238;PMS5003;56349;51.816;-0.026;2023-03-31T13:12:57;9;9;
69238;PMS5003;56349;51.816;-0.026;2023-03-31T13:15:18;11;10;
69238;PMS5003;56349;51.816;-0.026;2023-03-31T13:17:46;9;9;
69238;PMS5003;56349;51.816;-0.026;2023-03-31T13:22:35;8;8;
69238;PMS5003;56349;51.816;-0.026;2023-03-31T13:27:28;11;11;
69238;PMS5003;56349;51.816;-0.026;2023-03-31T13:29:50;5;5;
69238;PMS5003;56349;51.816;-0.026;2023-03-31T13:32:18;8;7;
69238;PMS5003;56349;51.816;-0.026;2023-03-31T13:34:43;3;3;
69238;PMS5003;56349;51.816;-0.026;2023-03-31T13:37:11;3;2;
69238;PMS5003;56349;51.816;-0.026;2023-03-31T13:39:40;2;2;
69238;PMS5003;56349;51.816;-0.026;2023-03-31T13:42:01;5;3;
69238;PMS5003;56349;51.816;-0.026;2023-03-31T13:44:31;3;3;
69238;PMS5003;56349;51.816;-0.026;2023-03-31T13:51:44;3;3;
69238;PMS5003;56349;51.816;-0.026;2023-03-31T13:56:37;5;4;
69238;PMS5003;56349;51.816;-0.026;2023-03-31T14:01:29;6;4;
69238;PMS5003;56349;51.816;-0.026;2023-03-31T14:03:52;3;2;
69238;PMS5003;56349;51.816;-0.026;2023-03-31T14:06:18;5;5;
69238;PMS5003;56349;51.816;-0.026;2023-03-31T14:08:42;1;1;
69238;PMS5003;56349;51.816;-0.026;2023-03-31T14:13:32;3;3;
69238;PMS5003;56349;51.816;-0.026;2023-03-31T14:15:57;3;3;
69238;PMS5003;56349;51.816;-0.026;2023-03-31T14:18:23;5;5;
69238;PMS5003;56349;51.816;-0.026;2023-03-31T14:20:53;4;4;
69238;PMS5003;56349;51.816;-0.026;2023-03-31T14:23:17;3;3;
69238;PMS5003;56349;51.816;-0.026;2023-03-31T14:25:42;4;4;
69238;PMS5003;56349;51.816;-0.026;2023-03-31T14:28:09;3;3;
69238;PMS5003;56349;51.816;-0.026;2023-03-31T14:30:34;2;2;
69238;PMS5003;56349;51.816;-0.026;2023-03-31T14:33:00;3;3;
69238;PMS5003;56349;51.816;-0.026;2023-03-31T14:35:24;3;3;
69238;PMS5003;56349;51.816;-0.026;2023-03-31T14:37:48;3;3;
69238;PMS5003;56349;51.816;-0.026;2023-03-31T14:40:13;2;2;
69238;PMS5003;56349;51.816;-0.026;2023-03-31T14:42:38;3;3;
69238;PMS5003;56349;51.816;-0.026;2023-03-31T14:45:05;3;2;
69238;PMS5003;56349;51.816;-0.026;2023-03-31T14:47:30;2;2;
69238;PMS5003;56349;51.816;-0.026;2023-03-31T14:49:58;4;4;
69238;PMS5003;56349;51.816;-0.026;2023-03-31T14:52:21;3;3;
69238;PMS5003;56349;51.816;-0.026;2023-03-31T14:54:47;3;3;
69238;PMS5003;56349;51.816;-0.026;2023-03-31T14:57:15;3;3;
69238;PMS5003;56349;51.816;-0.026;2023-03-31T14:59:38;3;3;
69238;PMS5003;56349;51.816;-0.026;2023-03-31T15:02:04;5;4;
69238;PMS5003;56349;51.816;-0.026;2023-03-31T15:04:33;3;3;
69238;PMS5003;56349;51.816;-0.026;2023-03-31T15:06:56;4;4;
69238;PMS5003;56349;51.816;-0.026;2023-03-31T15:09:22;2;2;
69238;PMS5003;56349;51.816;-0.026;2023-03-31T15:11:48;4;4;
69238;PMS5003;56349;51.816;-0.026;2023-03-31T15:23:56;7;7;
69238;PMS5003;56349;51.816;-0.026;2023-03-31T15:26:22;7;7;
69238;PMS5003;56349;51.816;-0.026;2023-03-31T15:28:48;6;6;
69238;PMS5003;56349;51.816;-0.026;2023-03-31T15:31:13;6;6;
69238;PMS5003;56349;51.816;-0.026;2023-03-31T15:33:39;6;6;
69238;PMS5003;56349;51.816;-0.026;2023-03-31T15:36:04;6;5;
69238;PMS5003;56349;51.816;-0.026;2023-03-31T15:38:29;8;8;
69238;PMS5003;56349;51.816;-0.026;2023-03-31T15:40:55;6;6;
69238;PMS5003;56349;51.816;-0.026;2023-03-31T15:43:26;6;6;
69238;PMS5003;56349;51.816;-0.026;2023-03-31T15:45:57;8;7;
69238;PMS5003;56349;51.816;-0.026;2023-03-31T15:48:16;5;5;
69238;PMS5003;56349;51.816;-0.026;2023-03-31T15:50:43;6;6;
69238;PMS5003;56349;51.816;-0.026;2023-03-31T15:53:18;8;8;
69238;PMS5003;56349;51.816;-0.026;2023-03-31T15:55:46;5;5;
69238;PMS5003;56349;51.816;-0.026;2023-03-31T16:02:44;7;7;
69238;PMS5003;56349;51.816;-0.026;2023-03-31T16:07:40;5;5;
69238;PMS5003;56349;51.816;-0.026;2023-03-31T16:10:02;7;7;
69238;PMS5003;56349;51.816;-0.026;2023-03-31T16:12:27;4;4;
69238;PMS5003;56349;51.816;-0.026;2023-03-31T16:14:52;5;5;
69238;PMS5003;56349;51.816;-0.026;2023-03-31T16:17:19;3;3;
69238;PMS5003;56349;51.816;-0.026;2023-03-31T16:19:44;5;4;
69238;PMS5003;56349;51.816;-0.026;2023-03-31T16:22:10;5;5;
69238;PMS5003;56349;51.816;-0.026;2023-03-31T16:24:33;6;5;
69238;PMS5003;56349;51.816;-0.026;2023-03-31T16:27:00;4;3;
69238;PMS5003;56349;51.816;-0.026;2023-03-31T16:29:25;6;4;
69238;PMS5003;56349;51.816;-0.026;2023-03-31T16:31:50;3;3;
69238;PMS5003;56349;51.816;-0.026;2023-03-31T16:34:16;3;3;
69238;PMS5003;56349;51.816;-0.026;2023-03-31T16:36:42;3;3;
69238;PMS5003;56349;51.816;-0.026;2023-03-31T16:39:07;4;4;
69238;PMS5003;56349;51.816;-0.026;2023-03-31T16:41:34;3;3;
69238;PMS5003;56349;51.816;-0.026;2023-03-31T16:43:59;4;4;
69238;PMS5003;56349;51.816;-0.026;2023-03-31T16:46:24;5;4;
69238;PMS5003;56349;51.816;-0.026;2023-03-31T16:48:50;5;3;
69238;PMS5003;56349;51.816;-0.026;2023-03-31T16:51:16;4;4;
69238;PMS5003;56349;51.816;-0.026;2023-03-31T16:53:42;5;4;
69238;PMS5003;56349;51.816;-0.026;2023-03-31T16:56:07;4;4;
69238;PMS5003;56349;51.816;-0.026;2023-03-31T16:58:33;3;3;
69238;PMS5003;56349;51.816;-0.026;2023-03-31T17:00:59;2;2;
69238;PMS5003;56349;51.816;-0.026;2023-03-31T17:03:25;4;4;
69238;PMS5003;56349;51.816;-0.026;2023-03-31T17:05:51;3;3;
69238;PMS5003;56349;51.816;-0.026;2023-03-31T17:08:15;3;3;
69238;PMS5003;56349;51.816;-0.026;2023-03-31T17:10:41;3;2;
69238;PMS5003;56349;51.816;-0.026;2023-03-31T17:13:07;3;2;
69238;PMS5003;56349;51.816;-0.026;2023-03-31T17:15:32;6;4;
69238;PMS5003;56349;51.816;-0.026;2023-03-31T17:17:57;3;3;
69238;PMS5003;56349;51.816;-0.026;2023-03-31T17:20:23;3;3;
69238;PMS5003;56349;51.816;-0.026;2023-03-31T17:22:49;3;3;
69238;PMS5003;56349;51.816;-0.026;2023-03-31T17:25:15;4;3;
69238;PMS5003;56349;51.816;-0.026;2023-03-31T17:27:40;3;3;